sensor_id;sensor_type;location;lat;lon;timestamp;P1;durP1;ratioP1;P2;durP2;ratioP2
20861;SDS011;10591;52.532;13.348;2022-07-29T00:00:12;6.20;;;3.80;;
20861;SDS011;10591;52.532;13.348;2022-07-29T00:02:46;5.40;;;4.00;;
20861;SDS011;10591;52.532;13.348;2022-07-29T00:05:17;6.20;;;4.50;;
20861;SDS011;10591;52.532;13.348;2022-07-29T00:07:48;5.05;;;4.10;;
20861;SDS011;10591;52.532;13.348;2022-07-29T00:10:19;7.10;;;4.00;;
20861;SDS011;10591;52.532;13.348;2022-07-29T00:12:49;7.67;;;4.22;;
20861;SDS011;10591;52.532;13.348;2022-07-29T00:15:20;6.03;;;4.50;;
20861;SDS011;10591;52.532;13.348;2022-07-29T00:17:51;6.87;;;4.30;;
20861;SDS011;10591;52.532;13.348;2022-07-29T00:20:21;7.00;;;4.17;;
20861;SDS011;10591;52.532;13.348;2022-07-29T00:22:52;5.33;;;4.08;;
20861;SDS011;10591;52.532;13.348;2022-07-29T00:25:23;5.87;;;4.25;;
20861;SDS011;10591;52.532;13.348;2022-07-29T00:27:53;6.85;;;4.30;;
20861;SDS011;10591;52.532;13.348;2022-07-29T00:30:24;4.33;;;3.87;;
20861;SDS011;10591;52.532;13.348;2022-07-29T00:32:54;5.37;;;4.37;;
20861;SDS011;10591;52.532;13.348;2022-07-29T00:35:26;7.47;;;4.20;;
20861;SDS011;10591;52.532;13.348;2022-07-29T00:38:13;4.50;;;3.97;;
20861;SDS011;10591;52.532;13.348;2022-07-29T00:40:46;5.92;;;4.10;;
20861;SDS011;10591;52.532;13.348;2022-07-29T00:43:17;7.35;;;4.17;;
20861;SDS011;10591;52.532;13.348;2022-07-29T00:45:49;5.58;;;4.10;;
20861;SDS011;10591;52.532;13.348;2022-07-29T00:48:19;4.37;;;3.98;;
20861;SDS011;10591;52.532;13.348;2022-07-29T00:50:50;5.13;;;4.03;;
20861;SDS011;10591;52.532;13.348;2022-07-29T00:53:21;7.78;;;4.40;;
20861;SDS011;10591;52.532;13.348;2022-07-29T00:55:52;4.93;;;4.00;;
20861;SDS011;10591;52.532;13.348;2022-07-29T00:58:24;6.83;;;4.53;;
20861;SDS011;10591;52.532;13.348;2022-07-29T01:00:55;7.42;;;4.58;;
20861;SDS011;10591;52.532;13.348;2022-07-29T01:03:27;7.30;;;4.20;;
20861;SDS011;10591;52.532;13.348;2022-07-29T01:05:58;7.93;;;4.53;;
20861;SDS011;10591;52.532;13.348;2022-07-29T01:08:29;5.97;;;4.12;;
20861;SDS011;10591;52.532;13.348;2022-07-29T01:11:01;5.73;;;3.83;;
20861;SDS011;10591;52.532;13.348;2022-07-29T01:13:32;4.50;;;4.10;;
20861;SDS011;10591;52.532;13.348;2022-07-29T01:16:08;4.55;;;4.05;;
20861;SDS011;10591;52.532;13.348;2022-07-29T01:18:42;8.50;;;4.40;;
20861;SDS011;10591;52.532;13.348;2022-07-29T01:23:59;7.97;;;4.53;;
20861;SDS011;10591;52.532;13.348;2022-07-29T01:26:34;8.13;;;3.93;;
20861;SDS011;10591;52.532;13.348;2022-07-29T01:29:28;4.78;;;4.00;;
20861;SDS011;10591;52.532;13.348;2022-07-29T01:32:12;7.37;;;4.42;;
20861;SDS011;10591;52.532;13.348;2022-07-29T01:34:55;4.95;;;3.85;;
20861;SDS011;10591;52.532;13.348;2022-07-29T01:37:32;7.42;;;4.10;;
20861;SDS011;10591;52.532;13.348;2022-07-29T01:40:14;6.60;;;4.55;;
20861;SDS011;10591;52.532;13.348;2022-07-29T01:42:48;5.37;;;3.97;;
20861;SDS011;10591;52.532;13.348;2022-07-29T01:50:56;6.22;;;3.87;;
20861;SDS011;10591;52.532;13.348;2022-07-29T01:53:35;6.30;;;4.15;;
20861;SDS011;10591;52.532;13.348;2022-07-29T01:56:07;4.43;;;3.97;;
20861;SDS011;10591;52.532;13.348;2022-07-29T01:58:40;4.78;;;3.87;;
20861;SDS011;10591;52.532;13.348;2022-07-29T02:01:13;4.95;;;3.67;;
20861;SDS011;10591;52.532;13.348;2022-07-29T02:03:46;5.07;;;3.90;;
20861;SDS011;10591;52.532;13.348;2022-07-29T02:06:19;5.22;;;4.22;;
20861;SDS011;10591;52.532;13.348;2022-07-29T02:08:51;5.90;;;3.80;;
20861;SDS011;10591;52.532;13.348;2022-07-29T02:11:23;8.47;;;3.60;;
20861;SDS011;10591;52.532;13.348;2022-07-29T02:13:54;4.08;;;3.67;;
20861;SDS011;10591;52.532;13.348;2022-07-29T02:16:29;5.65;;;3.85;;
20861;SDS011;10591;52.532;13.348;2022-07-29T02:19:01;5.60;;;4.03;;
20861;SDS011;10591;52.532;13.348;2022-07-29T02:21:32;8.97;;;4.27;;
20861;SDS011;10591;52.532;13.348;2022-07-29T02:24:05;6.78;;;3.80;;
20861;SDS011;10591;52.532;13.348;2022-07-29T02:26:36;4.40;;;3.75;;
20861;SDS011;10591;52.532;13.348;2022-07-29T02:29:09;4.10;;;3.70;;
20861;SDS011;10591;52.532;13.348;2022-07-29T02:31:44;5.33;;;4.07;;
20861;SDS011;10591;52.532;13.348;2022-07-29T02:34:16;6.95;;;4.20;;
20861;SDS011;10591;52.532;13.348;2022-07-29T02:36:50;5.03;;;4.13;;
20861;SDS011;10591;52.532;13.348;2022-07-29T02:39:24;4.72;;;3.90;;
20861;SDS011;10591;52.532;13.348;2022-07-29T02:41:59;4.87;;;3.57;;
20861;SDS011;10591;52.532;13.348;2022-07-29T02:44:30;6.97;;;3.85;;
20861;SDS011;10591;52.532;13.348;2022-07-29T02:47:07;5.10;;;3.87;;
20861;SDS011;10591;52.532;13.348;2022-07-29T02:55:37;4.92;;;3.85;;
20861;SDS011;10591;52.532;13.348;2022-07-29T02:58:06;5.30;;;3.90;;
20861;SDS011;10591;52.532;13.348;2022-07-29T03:00:37;6.47;;;4.00;;
20861;SDS011;10591;52.532;13.348;2022-07-29T03:03:13;5.83;;;4.17;;
20861;SDS011;10591;52.532;13.348;2022-07-29T03:05:47;6.00;;;3.90;;
20861;SDS011;10591;52.532;13.348;2022-07-29T03:08:17;7.12;;;4.37;;
20861;SDS011;10591;52.532;13.348;2022-07-29T03:10:48;5.03;;;3.70;;
20861;SDS011;10591;52.532;13.348;2022-07-29T03:13:19;7.13;;;3.70;;
20861;SDS011;10591;52.532;13.348;2022-07-29T03:15:50;8.65;;;3.80;;
20861;SDS011;10591;52.532;13.348;2022-07-29T03:18:22;6.70;;;3.90;;
20861;SDS011;10591;52.532;13.348;2022-07-29T03:20:53;5.73;;;3.93;;
20861;SDS011;10591;52.532;13.348;2022-07-29T03:23:24;5.58;;;3.98;;
20861;SDS011;10591;52.532;13.348;2022-07-29T03:25:58;6.23;;;3.83;;
20861;SDS011;10591;52.532;13.348;2022-07-29T03:28:29;6.33;;;3.85;;
20861;SDS011;10591;52.532;13.348;2022-07-29T03:31:00;4.90;;;4.40;;
20861;SDS011;10591;52.532;13.348;2022-07-29T03:33:32;7.07;;;4.33;;
20861;SDS011;10591;52.532;13.348;2022-07-29T03:36:02;4.62;;;3.47;;
20861;SDS011;10591;52.532;13.348;2022-07-29T03:38:34;7.20;;;4.10;;
20861;SDS011;10591;52.532;13.348;2022-07-29T03:41:07;4.10;;;3.73;;
20861;SDS011;10591;52.532;13.348;2022-07-29T03:43:40;6.77;;;3.67;;
20861;SDS011;10591;52.532;13.348;2022-07-29T03:46:14;4.97;;;4.10;;
20861;SDS011;10591;52.532;13.348;2022-07-29T03:48:48;5.43;;;4.10;;
20861;SDS011;10591;52.532;13.348;2022-07-29T03:51:20;6.80;;;3.63;;
20861;SDS011;10591;52.532;13.348;2022-07-29T03:53:52;5.27;;;3.97;;
20861;SDS011;10591;52.532;13.348;2022-07-29T03:56:23;4.75;;;3.65;;
20861;SDS011;10591;52.532;13.348;2022-07-29T03:58:56;4.55;;;3.72;;
20861;SDS011;10591;52.532;13.348;2022-07-29T04:01:28;4.20;;;3.75;;
20861;SDS011;10591;52.532;13.348;2022-07-29T04:04:00;6.42;;;3.75;;
20861;SDS011;10591;52.532;13.348;2022-07-29T04:06:40;5.73;;;4.10;;
20861;SDS011;10591;52.532;13.348;2022-07-29T04:09:11;5.50;;;3.77;;
20861;SDS011;10591;52.532;13.348;2022-07-29T04:11:42;5.90;;;4.43;;
20861;SDS011;10591;52.532;13.348;2022-07-29T04:14:16;7.05;;;4.37;;
20861;SDS011;10591;52.532;13.348;2022-07-29T04:16:47;6.03;;;3.83;;
20861;SDS011;10591;52.532;13.348;2022-07-29T04:19:17;6.75;;;4.00;;
20861;SDS011;10591;52.532;13.348;2022-07-29T04:21:48;8.27;;;4.13;;
20861;SDS011;10591;52.532;13.348;2022-07-29T04:24:18;7.53;;;4.53;;
20861;SDS011;10591;52.532;13.348;2022-07-29T04:26:49;7.12;;;4.30;;
20861;SDS011;10591;52.532;13.348;2022-07-29T04:29:20;6.17;;;3.92;;
20861;SDS011;10591;52.532;13.348;2022-07-29T04:31:50;5.67;;;4.00;;
20861;SDS011;10591;52.532;13.348;2022-07-29T04:34:21;7.35;;;4.15;;
20861;SDS011;10591;52.532;13.348;2022-07-29T04:36:53;7.33;;;4.00;;
20861;SDS011;10591;52.532;13.348;2022-07-29T04:39:24;4.67;;;4.00;;
20861;SDS011;10591;52.532;13.348;2022-07-29T04:41:56;8.30;;;4.12;;
20861;SDS011;10591;52.532;13.348;2022-07-29T04:44:29;5.57;;;3.93;;
20861;SDS011;10591;52.532;13.348;2022-07-29T04:47:01;5.53;;;3.33;;
20861;SDS011;10591;52.532;13.348;2022-07-29T04:49:31;6.30;;;3.50;;
20861;SDS011;10591;52.532;13.348;2022-07-29T04:52:02;6.40;;;3.73;;
20861;SDS011;10591;52.532;13.348;2022-07-29T04:54:32;4.12;;;3.70;;
20861;SDS011;10591;52.532;13.348;2022-07-29T04:57:03;6.33;;;3.90;;
20861;SDS011;10591;52.532;13.348;2022-07-29T04:59:33;6.40;;;3.70;;
20861;SDS011;10591;52.532;13.348;2022-07-29T05:02:04;4.83;;;3.47;;
20861;SDS011;10591;52.532;13.348;2022-07-29T05:04:34;4.42;;;3.50;;
20861;SDS011;10591;52.532;13.348;2022-07-29T05:07:05;5.28;;;3.80;;
20861;SDS011;10591;52.532;13.348;2022-07-29T05:09:38;6.80;;;3.90;;
20861;SDS011;10591;52.532;13.348;2022-07-29T05:12:09;5.47;;;4.03;;
20861;SDS011;10591;52.532;13.348;2022-07-29T05:14:40;5.10;;;3.90;;
20861;SDS011;10591;52.532;13.348;2022-07-29T05:17:13;6.05;;;3.52;;
20861;SDS011;10591;52.532;13.348;2022-07-29T05:19:44;6.75;;;4.03;;
20861;SDS011;10591;52.532;13.348;2022-07-29T05:22:15;6.22;;;3.70;;
20861;SDS011;10591;52.532;13.348;2022-07-29T05:24:48;7.25;;;4.03;;
20861;SDS011;10591;52.532;13.348;2022-07-29T05:27:20;6.78;;;4.20;;
20861;SDS011;10591;52.532;13.348;2022-07-29T05:29:50;7.05;;;3.65;;
20861;SDS011;10591;52.532;13.348;2022-07-29T05:32:21;5.03;;;4.15;;
20861;SDS011;10591;52.532;13.348;2022-07-29T05:34:51;7.90;;;3.80;;
20861;SDS011;10591;52.532;13.348;2022-07-29T05:37:22;7.37;;;3.92;;
20861;SDS011;10591;52.532;13.348;2022-07-29T05:39:52;5.08;;;3.77;;
20861;SDS011;10591;52.532;13.348;2022-07-29T05:42:26;6.20;;;3.98;;
20861;SDS011;10591;52.532;13.348;2022-07-29T05:45:00;6.37;;;3.72;;
20861;SDS011;10591;52.532;13.348;2022-07-29T05:47:31;6.37;;;3.95;;
20861;SDS011;10591;52.532;13.348;2022-07-29T05:50:02;5.57;;;3.57;;
20861;SDS011;10591;52.532;13.348;2022-07-29T05:52:37;8.10;;;3.87;;
20861;SDS011;10591;52.532;13.348;2022-07-29T05:55:09;6.80;;;4.03;;
20861;SDS011;10591;52.532;13.348;2022-07-29T05:57:41;7.15;;;3.47;;
20861;SDS011;10591;52.532;13.348;2022-07-29T06:00:14;4.72;;;3.87;;
20861;SDS011;10591;52.532;13.348;2022-07-29T06:02:45;4.70;;;3.58;;
20861;SDS011;10591;52.532;13.348;2022-07-29T06:05:16;7.58;;;3.95;;
20861;SDS011;10591;52.532;13.348;2022-07-29T06:07:47;5.97;;;3.72;;
20861;SDS011;10591;52.532;13.348;2022-07-29T06:10:19;7.72;;;3.42;;
20861;SDS011;10591;52.532;13.348;2022-07-29T06:12:53;5.87;;;3.80;;
20861;SDS011;10591;52.532;13.348;2022-07-29T06:15:23;6.40;;;3.90;;
20861;SDS011;10591;52.532;13.348;2022-07-29T06:17:54;4.92;;;3.70;;
20861;SDS011;10591;52.532;13.348;2022-07-29T06:20:28;6.80;;;3.75;;
20861;SDS011;10591;52.532;13.348;2022-07-29T06:23:00;3.40;;;3.10;;
20861;SDS011;10591;52.532;13.348;2022-07-29T06:25:33;5.05;;;3.20;;
20861;SDS011;10591;52.532;13.348;2022-07-29T06:28:05;5.90;;;3.55;;
20861;SDS011;10591;52.532;13.348;2022-07-29T06:30:36;6.97;;;3.67;;
20861;SDS011;10591;52.532;13.348;2022-07-29T06:33:06;5.35;;;3.35;;
20861;SDS011;10591;52.532;13.348;2022-07-29T06:35:37;4.95;;;3.40;;
20861;SDS011;10591;52.532;13.348;2022-07-29T06:38:11;5.53;;;3.75;;
20861;SDS011;10591;52.532;13.348;2022-07-29T06:40:44;7.55;;;3.67;;
20861;SDS011;10591;52.532;13.348;2022-07-29T06:43:40;6.05;;;3.90;;
20861;SDS011;10591;52.532;13.348;2022-07-29T06:46:17;8.05;;;3.60;;
20861;SDS011;10591;52.532;13.348;2022-07-29T06:48:49;5.30;;;3.45;;
20861;SDS011;10591;52.532;13.348;2022-07-29T06:51:21;6.42;;;3.50;;
20861;SDS011;10591;52.532;13.348;2022-07-29T06:53:55;4.50;;;3.35;;
20861;SDS011;10591;52.532;13.348;2022-07-29T06:56:30;5.08;;;3.00;;
20861;SDS011;10591;52.532;13.348;2022-07-29T06:59:04;6.03;;;3.60;;
20861;SDS011;10591;52.532;13.348;2022-07-29T07:01:39;4.95;;;3.37;;
20861;SDS011;10591;52.532;13.348;2022-07-29T07:04:13;4.05;;;3.17;;
20861;SDS011;10591;52.532;13.348;2022-07-29T07:06:44;5.25;;;3.70;;
20861;SDS011;10591;52.532;13.348;2022-07-29T07:09:15;6.10;;;3.10;;
20861;SDS011;10591;52.532;13.348;2022-07-29T07:11:46;3.67;;;3.05;;
20861;SDS011;10591;52.532;13.348;2022-07-29T07:14:17;6.33;;;3.50;;
20861;SDS011;10591;52.532;13.348;2022-07-29T07:16:50;6.30;;;3.33;;
20861;SDS011;10591;52.532;13.348;2022-07-29T07:19:22;5.95;;;3.52;;
20861;SDS011;10591;52.532;13.348;2022-07-29T07:21:53;7.92;;;3.92;;
20861;SDS011;10591;52.532;13.348;2022-07-29T07:24:24;10.63;;;3.55;;
20861;SDS011;10591;52.532;13.348;2022-07-29T07:26:56;7.85;;;3.40;;
20861;SDS011;10591;52.532;13.348;2022-07-29T07:29:26;5.47;;;3.35;;
20861;SDS011;10591;52.532;13.348;2022-07-29T07:31:57;4.70;;;3.50;;
20861;SDS011;10591;52.532;13.348;2022-07-29T07:34:29;7.90;;;3.30;;
20861;SDS011;10591;52.532;13.348;2022-07-29T07:37:00;5.85;;;3.10;;
20861;SDS011;10591;52.532;13.348;2022-07-29T07:39:31;5.72;;;3.45;;
20861;SDS011;10591;52.532;13.348;2022-07-29T07:42:04;5.97;;;3.90;;
20861;SDS011;10591;52.532;13.348;2022-07-29T07:44:34;3.72;;;2.67;;
20861;SDS011;10591;52.532;13.348;2022-07-29T07:47:07;6.62;;;3.00;;
20861;SDS011;10591;52.532;13.348;2022-07-29T07:49:40;6.78;;;3.52;;
20861;SDS011;10591;52.532;13.348;2022-07-29T07:52:12;3.80;;;2.90;;
20861;SDS011;10591;52.532;13.348;2022-07-29T07:54:44;4.05;;;2.85;;
20861;SDS011;10591;52.532;13.348;2022-07-29T07:57:14;3.35;;;2.65;;
20861;SDS011;10591;52.532;13.348;2022-07-29T07:59:47;4.15;;;2.62;;
20861;SDS011;10591;52.532;13.348;2022-07-29T08:02:23;8.75;;;3.00;;
20861;SDS011;10591;52.532;13.348;2022-07-29T08:04:53;3.50;;;2.55;;
20861;SDS011;10591;52.532;13.348;2022-07-29T08:07:24;4.37;;;2.77;;
20861;SDS011;10591;52.532;13.348;2022-07-29T08:09:55;5.10;;;2.90;;
20861;SDS011;10591;52.532;13.348;2022-07-29T08:12:25;4.58;;;2.60;;
20861;SDS011;10591;52.532;13.348;2022-07-29T08:14:55;6.78;;;3.02;;
20861;SDS011;10591;52.532;13.348;2022-07-29T08:17:26;6.00;;;2.60;;
20861;SDS011;10591;52.532;13.348;2022-07-29T08:19:57;4.85;;;2.98;;
20861;SDS011;10591;52.532;13.348;2022-07-29T08:22:27;4.42;;;2.20;;
20861;SDS011;10591;52.532;13.348;2022-07-29T08:24:58;3.17;;;2.50;;
20861;SDS011;10591;52.532;13.348;2022-07-29T08:27:28;2.80;;;2.27;;
20861;SDS011;10591;52.532;13.348;2022-07-29T08:30:02;4.30;;;2.37;;
20861;SDS011;10591;52.532;13.348;2022-07-29T08:32:36;4.53;;;2.37;;
20861;SDS011;10591;52.532;13.348;2022-07-29T08:35:07;3.65;;;2.40;;
20861;SDS011;10591;52.532;13.348;2022-07-29T08:37:38;4.22;;;2.60;;
20861;SDS011;10591;52.532;13.348;2022-07-29T08:40:09;4.72;;;2.50;;
20861;SDS011;10591;52.532;13.348;2022-07-29T08:42:40;4.72;;;2.52;;
20861;SDS011;10591;52.532;13.348;2022-07-29T08:45:11;4.50;;;2.55;;
20861;SDS011;10591;52.532;13.348;2022-07-29T08:47:43;5.00;;;2.27;;
20861;SDS011;10591;52.532;13.348;2022-07-29T08:50:14;5.87;;;2.52;;
20861;SDS011;10591;52.532;13.348;2022-07-29T08:52:45;3.72;;;2.25;;
20861;SDS011;10591;52.532;13.348;2022-07-29T08:55:16;6.35;;;2.70;;
20861;SDS011;10591;52.532;13.348;2022-07-29T08:57:49;3.80;;;2.33;;
20861;SDS011;10591;52.532;13.348;2022-07-29T09:00:21;5.25;;;2.40;;
20861;SDS011;10591;52.532;13.348;2022-07-29T09:02:56;3.12;;;2.30;;
20861;SDS011;10591;52.532;13.348;2022-07-29T09:05:28;3.80;;;2.20;;
20861;SDS011;10591;52.532;13.348;2022-07-29T09:07:59;3.62;;;2.45;;
20861;SDS011;10591;52.532;13.348;2022-07-29T09:10:31;3.90;;;2.67;;
20861;SDS011;10591;52.532;13.348;2022-07-29T09:13:01;4.53;;;2.37;;
20861;SDS011;10591;52.532;13.348;2022-07-29T09:15:32;3.77;;;2.27;;
20861;SDS011;10591;52.532;13.348;2022-07-29T09:18:02;5.25;;;2.60;;
20861;SDS011;10591;52.532;13.348;2022-07-29T09:20:33;4.33;;;2.70;;
20861;SDS011;10591;52.532;13.348;2022-07-29T09:23:22;5.08;;;2.70;;
20861;SDS011;10591;52.532;13.348;2022-07-29T09:25:53;3.70;;;2.25;;
20861;SDS011;10591;52.532;13.348;2022-07-29T09:28:23;4.15;;;2.50;;
20861;SDS011;10591;52.532;13.348;2022-07-29T09:30:55;5.42;;;2.45;;
20861;SDS011;10591;52.532;13.348;2022-07-29T09:33:32;4.00;;;2.25;;
20861;SDS011;10591;52.532;13.348;2022-07-29T09:36:08;4.75;;;2.72;;
20861;SDS011;10591;52.532;13.348;2022-07-29T09:38:40;4.08;;;2.35;;
20861;SDS011;10591;52.532;13.348;2022-07-29T09:41:10;3.60;;;2.67;;
20861;SDS011;10591;52.532;13.348;2022-07-29T09:43:52;6.55;;;2.58;;
20861;SDS011;10591;52.532;13.348;2022-07-29T09:46:16;7.78;;;2.42;;
20861;SDS011;10591;52.532;13.348;2022-07-29T09:49:05;4.97;;;2.55;;
20861;SDS011;10591;52.532;13.348;2022-07-29T09:51:38;5.55;;;2.58;;
20861;SDS011;10591;52.532;13.348;2022-07-29T09:54:31;3.92;;;2.42;;
20861;SDS011;10591;52.532;13.348;2022-07-29T09:56:56;5.10;;;2.50;;
20861;SDS011;10591;52.532;13.348;2022-07-29T09:59:27;4.65;;;2.50;;
20861;SDS011;10591;52.532;13.348;2022-07-29T10:01:57;3.77;;;2.30;;
20861;SDS011;10591;52.532;13.348;2022-07-29T10:04:41;4.47;;;2.40;;
20861;SDS011;10591;52.532;13.348;2022-07-29T10:07:12;4.33;;;2.40;;
20861;SDS011;10591;52.532;13.348;2022-07-29T10:09:54;3.72;;;2.25;;
20861;SDS011;10591;52.532;13.348;2022-07-29T10:12:26;2.77;;;2.30;;
20861;SDS011;10591;52.532;13.348;2022-07-29T10:14:56;3.77;;;2.58;;
20861;SDS011;10591;52.532;13.348;2022-07-29T10:17:27;3.52;;;2.20;;
20861;SDS011;10591;52.532;13.348;2022-07-29T10:19:58;4.55;;;2.10;;
20861;SDS011;10591;52.532;13.348;2022-07-29T10:22:30;4.62;;;2.12;;
20861;SDS011;10591;52.532;13.348;2022-07-29T10:25:02;4.35;;;2.55;;
20861;SDS011;10591;52.532;13.348;2022-07-29T10:27:34;3.33;;;2.12;;
20861;SDS011;10591;52.532;13.348;2022-07-29T10:30:05;7.45;;;2.30;;
20861;SDS011;10591;52.532;13.348;2022-07-29T10:35:27;2.17;;;1.90;;
20861;SDS011;10591;52.532;13.348;2022-07-29T10:43:38;2.30;;;1.98;;
20861;SDS011;10591;52.532;13.348;2022-07-29T10:46:14;4.78;;;2.15;;
20861;SDS011;10591;52.532;13.348;2022-07-29T10:52:05;5.12;;;2.10;;
20861;SDS011;10591;52.532;13.348;2022-07-29T11:05:17;3.52;;;2.08;;
20861;SDS011;10591;52.532;13.348;2022-07-29T11:10:39;5.65;;;1.98;;
20861;SDS011;10591;52.532;13.348;2022-07-29T11:13:12;4.28;;;2.10;;
20861;SDS011;10591;52.532;13.348;2022-07-29T11:15:56;3.17;;;2.25;;
20861;SDS011;10591;52.532;13.348;2022-07-29T11:18:27;4.08;;;2.52;;
20861;SDS011;10591;52.532;13.348;2022-07-29T11:20:59;3.58;;;2.58;;
20861;SDS011;10591;52.532;13.348;2022-07-29T11:23:31;3.45;;;2.22;;
20861;SDS011;10591;52.532;13.348;2022-07-29T11:28:50;5.42;;;2.75;;
20861;SDS011;10591;52.532;13.348;2022-07-29T11:31:36;2.95;;;2.40;;
20861;SDS011;10591;52.532;13.348;2022-07-29T11:44:57;5.58;;;2.40;;
20861;SDS011;10591;52.532;13.348;2022-07-29T11:50:31;4.22;;;2.77;;
20861;SDS011;10591;52.532;13.348;2022-07-29T11:53:09;2.80;;;2.50;;
20861;SDS011;10591;52.532;13.348;2022-07-29T11:55:44;2.90;;;2.70;;
20861;SDS011;10591;52.532;13.348;2022-07-29T11:58:16;3.98;;;2.40;;
20861;SDS011;10591;52.532;13.348;2022-07-29T12:00:53;5.08;;;2.92;;
20861;SDS011;10591;52.532;13.348;2022-07-29T12:03:25;4.40;;;2.70;;
20861;SDS011;10591;52.532;13.348;2022-07-29T12:05:58;3.65;;;3.30;;
20861;SDS011;10591;52.532;13.348;2022-07-29T12:08:38;4.47;;;2.92;;
20861;SDS011;10591;52.532;13.348;2022-07-29T12:11:14;4.85;;;2.87;;
20861;SDS011;10591;52.532;13.348;2022-07-29T12:13:39;4.17;;;2.67;;
20861;SDS011;10591;52.532;13.348;2022-07-29T12:16:11;3.95;;;2.87;;
20861;SDS011;10591;52.532;13.348;2022-07-29T12:18:42;2.70;;;2.50;;
20861;SDS011;10591;52.532;13.348;2022-07-29T12:21:27;5.40;;;3.00;;
20861;SDS011;10591;52.532;13.348;2022-07-29T12:23:58;3.87;;;3.37;;
20861;SDS011;10591;52.532;13.348;2022-07-29T12:26:32;4.67;;;3.00;;
20861;SDS011;10591;52.532;13.348;2022-07-29T12:29:04;3.70;;;3.40;;
20861;SDS011;10591;52.532;13.348;2022-07-29T12:31:36;4.97;;;3.15;;
20861;SDS011;10591;52.532;13.348;2022-07-29T12:34:10;3.70;;;2.98;;
20861;SDS011;10591;52.532;13.348;2022-07-29T12:36:43;3.75;;;2.80;;
20861;SDS011;10591;52.532;13.348;2022-07-29T12:39:18;3.95;;;3.10;;
20861;SDS011;10591;52.532;13.348;2022-07-29T12:41:49;4.05;;;3.10;;
20861;SDS011;10591;52.532;13.348;2022-07-29T12:44:23;4.25;;;3.25;;
20861;SDS011;10591;52.532;13.348;2022-07-29T12:47:01;6.35;;;3.50;;
20861;SDS011;10591;52.532;13.348;2022-07-29T12:49:32;5.00;;;3.60;;
20861;SDS011;10591;52.532;13.348;2022-07-29T12:52:23;3.50;;;3.20;;
20861;SDS011;10591;52.532;13.348;2022-07-29T12:55:00;4.22;;;3.02;;
20861;SDS011;10591;52.532;13.348;2022-07-29T12:57:35;5.87;;;3.20;;
20861;SDS011;10591;52.532;13.348;2022-07-29T13:00:23;4.20;;;3.10;;
20861;SDS011;10591;52.532;13.348;2022-07-29T13:02:55;4.60;;;3.55;;
20861;SDS011;10591;52.532;13.348;2022-07-29T13:05:43;4.58;;;3.27;;
20861;SDS011;10591;52.532;13.348;2022-07-29T13:08:16;3.72;;;3.27;;
20861;SDS011;10591;52.532;13.348;2022-07-29T13:10:50;4.22;;;3.27;;
20861;SDS011;10591;52.532;13.348;2022-07-29T13:13:20;3.75;;;3.22;;
20861;SDS011;10591;52.532;13.348;2022-07-29T13:16:05;6.33;;;3.40;;
20861;SDS011;10591;52.532;13.348;2022-07-29T13:21:11;4.17;;;3.00;;
20861;SDS011;10591;52.532;13.348;2022-07-29T13:23:44;4.50;;;3.20;;
20861;SDS011;10591;52.532;13.348;2022-07-29T13:26:14;3.60;;;3.22;;
20861;SDS011;10591;52.532;13.348;2022-07-29T13:28:46;6.22;;;3.55;;
20861;SDS011;10591;52.532;13.348;2022-07-29T13:31:18;7.12;;;3.58;;
20861;SDS011;10591;52.532;13.348;2022-07-29T13:33:50;3.77;;;3.33;;
20861;SDS011;10591;52.532;13.348;2022-07-29T13:36:22;4.75;;;3.30;;
20861;SDS011;10591;52.532;13.348;2022-07-29T13:38:52;4.15;;;3.47;;
20861;SDS011;10591;52.532;13.348;2022-07-29T13:41:28;4.97;;;3.40;;
20861;SDS011;10591;52.532;13.348;2022-07-29T13:44:00;4.87;;;3.62;;
20861;SDS011;10591;52.532;13.348;2022-07-29T13:46:31;5.03;;;3.33;;
20861;SDS011;10591;52.532;13.348;2022-07-29T13:49:05;3.65;;;3.30;;
20861;SDS011;10591;52.532;13.348;2022-07-29T13:51:38;5.75;;;3.58;;
20861;SDS011;10591;52.532;13.348;2022-07-29T13:54:08;3.50;;;3.20;;
20861;SDS011;10591;52.532;13.348;2022-07-29T13:56:40;4.15;;;3.58;;
20861;SDS011;10591;52.532;13.348;2022-07-29T13:59:11;4.92;;;3.50;;
20861;SDS011;10591;52.532;13.348;2022-07-29T14:01:42;5.12;;;3.30;;
20861;SDS011;10591;52.532;13.348;2022-07-29T14:04:14;6.97;;;3.60;;
20861;SDS011;10591;52.532;13.348;2022-07-29T14:06:45;5.60;;;3.58;;
20861;SDS011;10591;52.532;13.348;2022-07-29T14:09:17;4.03;;;3.45;;
20861;SDS011;10591;52.532;13.348;2022-07-29T14:11:47;6.00;;;3.60;;
20861;SDS011;10591;52.532;13.348;2022-07-29T14:14:20;6.72;;;3.83;;
20861;SDS011;10591;52.532;13.348;2022-07-29T14:16:52;4.17;;;3.47;;
20861;SDS011;10591;52.532;13.348;2022-07-29T14:19:23;5.30;;;3.75;;
20861;SDS011;10591;52.532;13.348;2022-07-29T14:21:54;4.17;;;3.77;;
20861;SDS011;10591;52.532;13.348;2022-07-29T14:24:26;4.08;;;3.50;;
20861;SDS011;10591;52.532;13.348;2022-07-29T14:26:56;3.98;;;3.67;;
20861;SDS011;10591;52.532;13.348;2022-07-29T14:29:29;5.25;;;3.80;;
20861;SDS011;10591;52.532;13.348;2022-07-29T14:32:01;4.22;;;3.92;;
20861;SDS011;10591;52.532;13.348;2022-07-29T14:34:33;4.22;;;3.83;;
20861;SDS011;10591;52.532;13.348;2022-07-29T14:37:04;3.98;;;3.58;;
20861;SDS011;10591;52.532;13.348;2022-07-29T14:39:38;6.42;;;4.60;;
20861;SDS011;10591;52.532;13.348;2022-07-29T14:42:11;4.20;;;3.83;;
20861;SDS011;10591;52.532;13.348;2022-07-29T14:44:41;4.08;;;3.67;;
20861;SDS011;10591;52.532;13.348;2022-07-29T14:47:14;4.33;;;3.70;;
20861;SDS011;10591;52.532;13.348;2022-07-29T14:49:46;5.42;;;3.50;;
20861;SDS011;10591;52.532;13.348;2022-07-29T14:52:19;4.55;;;3.62;;
20861;SDS011;10591;52.532;13.348;2022-07-29T14:54:50;4.58;;;3.72;;
20861;SDS011;10591;52.532;13.348;2022-07-29T14:57:22;4.25;;;3.85;;
20861;SDS011;10591;52.532;13.348;2022-07-29T14:59:52;5.08;;;3.75;;
20861;SDS011;10591;52.532;13.348;2022-07-29T15:02:23;4.25;;;3.95;;
20861;SDS011;10591;52.532;13.348;2022-07-29T15:04:55;5.08;;;3.77;;
20861;SDS011;10591;52.532;13.348;2022-07-29T15:07:26;4.67;;;3.80;;
20861;SDS011;10591;52.532;13.348;2022-07-29T15:09:59;5.10;;;3.33;;
20861;SDS011;10591;52.532;13.348;2022-07-29T15:15:06;4.20;;;3.77;;
20861;SDS011;10591;52.532;13.348;2022-07-29T15:17:37;4.12;;;3.70;;
20861;SDS011;10591;52.532;13.348;2022-07-29T15:20:09;5.67;;;4.00;;
20861;SDS011;10591;52.532;13.348;2022-07-29T15:22:40;4.75;;;3.75;;
20861;SDS011;10591;52.532;13.348;2022-07-29T15:25:11;4.30;;;3.90;;
20861;SDS011;10591;52.532;13.348;2022-07-29T15:27:44;3.98;;;3.60;;
20861;SDS011;10591;52.532;13.348;2022-07-29T15:30:16;4.45;;;3.62;;
20861;SDS011;10591;52.532;13.348;2022-07-29T15:32:48;5.45;;;3.60;;
20861;SDS011;10591;52.532;13.348;2022-07-29T15:35:20;4.03;;;3.62;;
20861;SDS011;10591;52.532;13.348;2022-07-29T15:37:51;4.40;;;3.83;;
20861;SDS011;10591;52.532;13.348;2022-07-29T15:40:22;4.65;;;3.65;;
20861;SDS011;10591;52.532;13.348;2022-07-29T15:42:52;3.92;;;3.60;;
20861;SDS011;10591;52.532;13.348;2022-07-29T15:45:23;3.95;;;3.52;;
20861;SDS011;10591;52.532;13.348;2022-07-29T15:47:55;4.20;;;3.85;;
20861;SDS011;10591;52.532;13.348;2022-07-29T15:50:32;5.53;;;3.80;;
20861;SDS011;10591;52.532;13.348;2022-07-29T15:52:58;3.58;;;3.27;;
20861;SDS011;10591;52.532;13.348;2022-07-29T15:55:29;6.25;;;3.27;;
20861;SDS011;10591;52.532;13.348;2022-07-29T15:58:00;4.67;;;4.20;;
20861;SDS011;10591;52.532;13.348;2022-07-29T16:00:31;4.35;;;3.40;;
20861;SDS011;10591;52.532;13.348;2022-07-29T16:03:02;4.42;;;3.30;;
20861;SDS011;10591;52.532;13.348;2022-07-29T16:05:34;3.58;;;3.27;;